Artemas, Pennsylvania
Current Conditions -  °F | °C
As of 12:37 PM on Friday 24 Oct 2014 (Local Time) from KCBE Reporting Station
Clear Clear  
Wind Chill: 63°   Ceiling: Unl
Heat Index: 63°   Visibility: 10mi
Dew Point: 37°   Wind: 8mph
Humidity: 39%   Direction: 280°W
Pressure: 30.06"   Gusts: NA
Location:  39.75°N, 78.44°W
Report Text: KCBE 241637Z AUTO 28007KT 251V331 10SM CLR 17/03 A3006 RMK AO1
Loading
Personal Weather Stations






























Interactive Weather Map
Tropical Storm Tracking
New forecast layout! Learn more

10-Day Weather Forecast

Advertisements
Track Severe Weather on mobile